Aviation Digital Data Service (ADDS)

Output produced by METARs form (0917 UTC 26 May 2019)
found at http://www.aviationweather.gov/metar/data/
 
KRNH 260520Z 2606/2706 00000KT P6SM SKC 
     FM261800 VRB03KT P6SM FEW040 
     FM270300 00000KT P6SM BKN150